Time;durP1;ratioP1;P1;durP2;ratioP2;P2;SDS_P1;SDS_P2;PMS_P1;PMS_P2;Temp;Humidity;BMP_temperature;BMP_pressure;BME280_temperature;BME280_humidity;BME280_pressure;Samples;Min_cycle;Max_cycle;Signal;HPM_P1;HPM_P2
2023/10/17 00:01:10;;;;;;;7.13;3.63;;;;;;;6.23;100.00;101916.97;6253567;28;20049;-70
2023/10/17 00:04:25;;;;;;;10.30;4.25;;;;;;;6.22;100.00;101920.44;6252429;28;20335;-70
2023/10/17 00:07:27;;;;;;;6.78;3.72;;;;;;;6.24;100.00;101913.44;6253042;28;20434;-70
2023/10/17 00:10:31;;;;;;;7.80;4.18;;;;;;;6.26;100.00;101920.34;6245147;28;20493;-69
2023/10/17 00:13:39;;;;;;;10.25;4.10;;;;;;;6.26;100.00;101915.13;6253860;28;20045;-69
2023/10/17 00:16:40;;;;;;;8.18;4.40;;;;;;;6.34;100.00;101912.41;6245355;28;20046;-70
2023/10/17 00:19:42;;;;;;;12.43;4.63;;;;;;;6.25;100.00;101916.03;6245208;28;20041;-70
2023/10/17 00:22:44;;;;;;;10.23;5.35;;;;;;;6.25;100.00;101921.25;6253199;28;20053;-70
2023/10/17 00:25:46;;;;;;;8.82;4.40;;;;;;;6.22;100.00;101921.31;6244908;28;20053;-69
2023/10/17 00:28:51;;;;;;;9.95;5.03;;;;;;;6.16;100.00;101918.78;6253419;28;20053;-69
2023/10/17 00:31:52;;;;;;;8.68;4.25;;;;;;;6.05;100.00;101928.56;6252546;28;20350;-69
2023/10/17 00:34:54;;;;;;;9.23;4.43;;;;;;;6.06;100.00;101922.44;6253248;28;20053;-69
2023/10/17 00:37:57;;;;;;;10.27;4.40;;;;;;;6.12;100.00;101916.25;6253517;28;20053;-69
2023/10/17 00:40:59;;;;;;;11.25;4.88;;;;;;;6.05;100.00;101918.13;6252952;28;20464;-70
2023/10/17 00:44:02;;;;;;;10.20;4.65;;;;;;;6.01;100.00;101925.13;6253272;28;20096;-69
2023/10/17 00:47:05;;;;;;;10.18;4.50;;;;;;;5.96;100.00;101915.66;6252844;28;20442;-69
2023/10/17 00:50:12;;;;;;;9.13;4.25;;;;;;;5.93;100.00;101913.06;6252409;28;20365;-70
2023/10/17 00:53:15;;;;;;;9.15;4.03;;;;;;;5.91;100.00;101918.28;6252649;28;20054;-69
2023/10/17 00:56:16;;;;;;;9.88;4.90;;;;;;;5.90;100.00;101916.53;6252664;28;20046;-69
2023/10/17 00:59:24;;;;;;;10.20;5.05;;;;;;;5.84;100.00;101912.28;6252364;28;20053;-70
2023/10/17 01:02:29;;;;;;;7.78;3.85;;;;;;;5.85;100.00;101915.75;6252348;28;20045;-69
2023/10/17 01:05:41;;;;;;;12.45;5.28;;;;;;;5.84;100.00;101907.06;6252336;28;20354;-69
2023/10/17 01:08:46;;;;;;;26.58;6.03;;;;;;;5.73;100.00;101905.53;6252405;28;20045;-70
2023/10/17 01:11:48;;;;;;;8.00;4.18;;;;;;;5.62;100.00;101900.44;6243998;28;20041;-69
2023/10/17 01:14:51;;;;;;;8.95;4.68;;;;;;;5.57;100.00;101892.69;6252442;28;20050;-69
2023/10/17 01:17:54;;;;;;;7.00;4.07;;;;;;;5.58;100.00;101893.53;6252033;28;20045;-69
2023/10/17 01:20:55;;;;;;;12.10;4.65;;;;;;;5.56;100.00;101890.97;6251960;28;20136;-69
2023/10/17 01:23:57;;;;;;;7.78;4.38;;;;;;;5.52;100.00;101894.50;6251822;28;20045;-69
2023/10/17 01:27:06;;;;;;;9.27;3.65;;;;;;;5.44;100.00;101901.56;6251590;28;20045;-70
2023/10/17 01:30:08;;;;;;;7.78;3.65;;;;;;;5.43;100.00;101896.38;6251568;28;20053;-69
2023/10/17 01:33:10;;;;;;;8.88;3.83;;;;;;;5.32;100.00;101900.00;6251695;28;20053;-70
2023/10/17 01:36:13;;;;;;;16.25;6.68;;;;;;;5.34;100.00;101894.75;6251576;28;20049;-70
2023/10/17 01:39:16;;;;;;;9.10;4.30;;;;;;;5.38;100.00;101898.19;6251777;28;20060;-70
2023/10/17 01:42:20;;;;;;;5.78;3.60;;;;;;;5.34;100.00;101886.94;6251244;28;20438;-70
2023/10/17 01:45:23;;;;;;;6.45;2.92;;;;;;;5.34;100.00;101882.56;6251741;28;20489;-69
2023/10/17 01:48:25;;;;;;;5.30;3.00;;;;;;;5.29;100.00;101896.56;6251489;28;20458;-69
2023/10/17 01:51:28;;;;;;;4.95;2.97;;;;;;;5.09;100.00;101889.00;6251088;28;20050;-69
2023/10/17 01:54:30;;;;;;;5.60;2.40;;;;;;;5.16;100.00;101888.03;6251101;28;20150;-70
2023/10/17 01:57:34;;;;;;;5.97;3.20;;;;;;;5.17;100.00;101886.28;6251203;28;20045;-69
2023/10/17 02:00:38;;;;;;;5.80;2.83;;;;;;;5.17;100.00;101886.28;6251020;28;20050;-69
2023/10/17 02:03:40;;;;;;;5.78;3.00;;;;;;;5.13;100.00;101889.81;6250217;28;20042;-70
2023/10/17 02:06:42;;;;;;;7.85;3.38;;;;;;;5.13;100.00;101892.41;6244271;28;20045;-70
2023/10/17 02:09:48;;;;;;;5.63;3.28;;;;;;;5.13;100.00;101890.66;6243503;28;20053;-70
2023/10/17 02:12:50;;;;;;;6.15;3.40;;;;;;;5.14;100.00;101887.19;6250947;28;20081;-69
2023/10/17 02:15:52;;;;;;;8.98;3.15;;;;;;;5.11;100.00;101889.84;6250851;28;20046;-69
2023/10/17 02:18:54;;;;;;;6.80;3.15;;;;;;;5.12;100.00;101888.94;6248495;28;20049;-70
2023/10/17 02:21:56;;;;;;;5.75;3.08;;;;;;;5.14;100.00;101886.34;6244475;28;20076;-70
2023/10/17 02:24:57;;;;;;;5.68;3.20;;;;;;;5.09;100.00;101884.66;6250605;28;20049;-70
2023/10/17 02:28:00;;;;;;;5.47;2.80;;;;;;;5.06;100.00;101896.84;6250528;28;20049;-70
2023/10/17 02:31:01;;;;;;;8.18;3.50;;;;;;;5.07;100.00;101889.00;6250501;28;20053;-70
2023/10/17 02:34:03;;;;;;;7.72;3.45;;;;;;;5.00;100.00;101889.13;6250306;28;20056;-70
2023/10/17 02:37:10;;;;;;;7.05;3.38;;;;;;;5.02;100.00;101885.59;6250739;28;20053;-70
2023/10/17 02:40:20;;;;;;;5.78;2.88;;;;;;;4.96;100.00;101888.28;6249352;28;20457;-70
2023/10/17 02:43:22;;;;;;;7.63;3.60;;;;;;;4.89;100.00;101885.75;6242122;28;20124;-70
2023/10/17 02:46:26;;;;;;;4.70;2.50;;;;;;;4.88;100.00;101895.31;6250533;28;20099;-69
2023/10/17 02:49:36;;;;;;;7.43;2.70;;;;;;;4.80;100.00;101892.78;6243388;28;20460;-69
2023/10/17 02:52:38;;;;;;;6.40;2.90;;;;;;;4.78;100.00;101902.38;6250107;28;20052;-70
2023/10/17 02:55:39;;;;;;;8.63;3.92;;;;;;;4.70;100.00;101898.97;6250404;28;20045;-69
2023/10/17 02:58:42;;;;;;;6.32;3.53;;;;;;;4.77;100.00;101900.66;6250341;28;20053;-69
2023/10/17 03:01:47;;;;;;;5.05;3.50;;;;;;;4.80;100.00;101899.75;6250220;28;20056;-69
2023/10/17 03:04:49;;;;;;;5.95;3.08;;;;;;;4.77;100.00;101899.78;6250229;28;20057;-69
2023/10/17 03:07:50;;;;;;;5.03;2.67;;;;;;;4.78;100.00;101901.50;6250087;28;20053;-69
2023/10/17 03:10:56;;;;;;;5.93;3.00;;;;;;;4.72;100.00;101902.41;6250068;28;20442;-70
2023/10/17 03:13:59;;;;;;;5.30;2.85;;;;;;;4.66;100.00;101901.63;6250000;28;20354;-70
2023/10/17 03:17:01;;;;;;;4.78;2.75;;;;;;;4.64;100.00;101895.59;6250142;28;20042;-69
2023/10/17 03:20:08;;;;;;;5.47;3.00;;;;;;;4.58;100.00;101893.88;6249752;28;20160;-69
2023/10/17 03:23:10;;;;;;;6.68;3.03;;;;;;;4.50;100.00;101888.78;6250064;28;20042;-69
2023/10/17 03:26:11;;;;;;;5.07;2.63;;;;;;;4.48;100.00;101894.88;6250225;28;20053;-69
2023/10/17 03:29:19;;;;;;;4.88;3.40;;;;;;;4.57;100.00;101894.78;6249983;28;20136;-70
2023/10/17 03:32:23;;;;;;;4.20;2.15;;;;;;;4.59;100.00;101900.84;6249599;28;20102;-69
2023/10/17 03:35:24;;;;;;;5.25;2.22;;;;;;;4.51;100.00;101894.84;6250119;28;20148;-69
2023/10/17 03:38:27;;;;;;;3.72;2.20;;;;;;;4.52;100.00;101893.97;6249908;28;20053;-69
2023/10/17 03:41:29;;;;;;;4.82;2.67;;;;;;;4.50;100.00;101893.13;6249846;28;20042;-69
2023/10/17 03:44:32;;;;;;;4.85;2.42;;;;;;;4.45;100.00;101890.56;6249537;28;20374;-69
2023/10/17 03:47:34;;;;;;;4.38;2.42;;;;;;;4.40;100.00;101897.53;6249900;28;20055;-70
2023/10/17 03:50:41;;;;;;;4.25;2.47;;;;;;;4.29;100.00;101895.03;6251252;28;20049;-70
2023/10/17 03:53:44;;;;;;;10.00;2.15;;;;;;;4.35;100.00;101890.66;6254092;28;20560;-70
2023/10/17 03:56:46;;;;;;;3.88;2.42;;;;;;;4.39;100.00;101893.22;6254147;28;20056;-70
2023/10/17 03:59:52;;;;;;;4.07;2.47;;;;;;;4.24;100.00;101894.22;6253825;28;20053;-70
2023/10/17 04:02:54;;;;;;;2.65;1.77;;;;;;;4.27;100.00;101896.81;6253747;28;20441;-69
2023/10/17 04:06:02;;;;;;;3.15;2.05;;;;;;;4.28;100.00;101902.88;6250926;28;20053;-69
2023/10/17 04:09:26;;;;;;;2.88;1.90;;;;;;;4.23;100.00;101902.91;6246029;28;20045;-69
2023/10/17 04:12:37;;;;;;;5.53;2.65;;;;;;;4.24;100.00;101907.22;6244233;28;20042;-69
2023/10/17 04:15:42;;;;;;;6.18;2.67;;;;;;;4.26;100.00;101909.81;6245534;28;20044;-69
2023/10/17 04:18:48;;;;;;;4.55;2.65;;;;;;;4.27;100.00;101908.94;6252742;28;20453;-69
2023/10/17 04:22:01;;;;;;;4.35;2.25;;;;;;;4.35;100.00;101909.72;6246396;28;20076;-69
2023/10/17 04:25:04;;;;;;;4.22;2.50;;;;;;;4.22;100.00;101911.56;6253574;28;20042;-69
2023/10/17 04:28:06;;;;;;;5.53;2.28;;;;;;;4.06;100.00;101903.03;6253380;28;20132;-69
2023/10/17 04:31:10;;;;;;;3.42;2.00;;;;;;;4.03;100.00;101903.06;6253004;28;20072;-69
2023/10/17 04:34:17;;;;;;;5.55;2.42;;;;;;;4.03;100.00;101903.06;6253073;28;20045;-69
2023/10/17 04:37:24;;;;;;;4.25;2.50;;;;;;;3.98;100.00;101899.63;6253117;28;20057;-69
2023/10/17 04:40:37;;;;;;;4.22;2.35;;;;;;;3.95;100.00;101907.47;6252894;28;20050;-69
2023/10/17 04:43:54;;;;;;;4.93;2.55;;;;;;;3.99;100.00;101909.16;6252770;28;20046;-69
2023/10/17 04:47:07;;;;;;;3.25;2.03;;;;;;;4.05;100.00;101906.53;6252970;28;20061;-69
2023/10/17 04:50:11;;;;;;;5.40;2.50;;;;;;;4.12;100.00;101909.94;6252844;28;20052;-69
2023/10/17 04:53:26;;;;;;;3.42;1.98;;;;;;;4.16;100.00;101906.44;6252728;28;20045;-69
2023/10/17 04:56:40;;;;;;;4.15;2.45;;;;;;;4.05;100.00;101910.88;6252976;28;20144;-69
2023/10/17 05:00:09;;;;;;;4.63;2.45;;;;;;;4.03;100.00;101910.00;6252533;28;20071;-69
2023/10/17 05:03:20;;;;;;;3.22;2.30;;;;;;;3.99;100.00;101911.75;6251725;28;20049;-71
2023/10/17 05:06:24;;;;;;;7.45;2.05;;;;;;;3.98;100.00;101915.22;6252458;28;20452;-71
2023/10/17 06:19:20;;;;;;;3.63;1.95;;;;;;;3.55;100.00;101949.31;6242437;28;20057;-69
2023/10/17 06:26:22;;;;;;;4.53;2.40;;;;;;;3.55;100.00;101944.09;6166904;28;20403;-69
2023/10/17 06:33:03;;;;;;;;;;;;;;;3.50;100.00;101952.81;6242289;28;20081;-69
2023/10/17 06:36:24;;;;;;;3.50;1.95;;;;;;;3.52;100.00;101951.06;6241910;28;19926;-70
2023/10/17 06:39:36;;;;;;;2.85;2.08;;;;;;;3.53;100.00;101953.63;6248170;28;20059;-69
2023/10/17 06:42:39;;;;;;;4.78;2.47;;;;;;;3.49;100.00;101949.31;6242080;28;20046;-69
2023/10/17 06:45:52;;;;;;;4.18;2.50;;;;;;;3.52;100.00;101959.72;6242750;28;20059;-68
2023/10/17 06:48:57;;;;;;;3.72;2.20;;;;;;;3.57;100.00;101959.69;6241364;28;20071;-69
2023/10/17 06:52:09;;;;;;;8.70;2.22;;;;;;;3.59;100.00;101970.06;6243287;28;20059;-69
2023/10/17 06:55:21;;;;;;;2.88;1.98;;;;;;;3.57;100.00;101970.09;6244405;28;20044;-69
2023/10/17 06:58:27;;;;;;;4.90;2.28;;;;;;;3.54;100.00;101970.09;6248472;28;20056;-70
2023/10/17 07:01:28;;;;;;;3.10;2.08;;;;;;;3.60;100.00;101971.81;6246661;28;20056;-71
2023/10/17 07:04:32;;;;;;;7.32;2.08;;;;;;;3.67;100.00;101971.75;6241419;28;20131;-70
2023/10/17 07:07:39;;;;;;;5.80;2.75;;;;;;;3.73;100.00;101970.88;6241740;28;20438;-70
2023/10/17 07:10:53;;;;;;;4.22;2.15;;;;;;;3.67;100.00;101968.28;6249519;28;20056;-69
2023/10/17 07:14:22;;;;;;;4.25;2.03;;;;;;;3.76;100.00;101970.84;6245627;28;20042;-69
2023/10/17 07:17:43;;;;;;;6.60;2.80;;;;;;;3.83;100.00;101971.69;6255847;28;20045;-71
2023/10/17 07:24:06;;;;;;;5.97;2.45;;;;;;;4.01;100.00;101977.63;6249382;28;20056;-70
2023/10/17 07:27:12;;;;;;;4.13;2.25;;;;;;;4.07;100.00;101976.72;6254193;28;20052;-69
2023/10/17 07:30:24;;;;;;;6.53;2.88;;;;;;;4.09;100.00;101972.41;6263491;28;20051;-69
2023/10/17 07:33:26;;;;;;;5.10;3.22;;;;;;;4.19;100.00;101976.66;6276511;28;20045;-68
2023/10/17 07:36:27;;;;;;;4.60;2.58;;;;;;;4.22;100.00;101976.59;6279162;28;20045;-69
2023/10/17 07:39:36;;;;;;;6.63;3.13;;;;;;;4.28;100.00;101965.31;6279003;28;20053;-69
2023/10/17 07:42:41;;;;;;;3.73;2.43;;;;;;;4.38;100.00;101968.72;6279340;28;20053;-70
2023/10/17 07:45:55;;;;;;;5.00;2.88;;;;;;;4.46;100.00;101978.19;6278832;28;20749;-70
2023/10/17 07:49:04;;;;;;;5.40;3.08;;;;;;;4.52;100.00;101979.88;6261572;28;20100;-69
2023/10/17 07:52:12;;;;;;;5.15;2.85;;;;;;;4.60;100.00;101974.59;6245699;28;20082;-70
2023/10/17 07:55:19;;;;;;;6.38;2.80;;;;;;;4.66;100.00;101971.94;6245671;28;20121;-70
2023/10/17 08:01:43;;;;;;;8.68;2.47;;;;;;;4.78;100.00;101970.09;6242633;28;20053;-70
2023/10/17 08:04:44;;;;;;;5.68;3.15;;;;;;;4.87;100.00;101976.94;6253657;28;20042;-71
2023/10/17 08:07:49;;;;;;;6.13;3.10;;;;;;;4.94;100.00;101975.13;6253693;28;20053;-71
2023/10/17 08:10:51;;;;;;;5.18;3.15;;;;;;;5.01;100.00;101974.19;6253637;28;20060;-71
2023/10/17 08:13:53;;;;;;;4.90;3.38;;;;;;;5.06;100.00;101968.06;6253607;28;20076;-70
2023/10/17 08:16:57;;;;;;;4.75;2.85;;;;;;;5.13;100.00;101968.84;6253649;28;20361;-71
2023/10/17 08:20:08;;;;;;;4.43;3.00;;;;;;;5.20;100.00;101970.50;6253308;28;20080;-71
2023/10/17 08:23:09;;;;;;;4.35;2.55;;;;;;;5.31;100.00;101970.38;6244442;28;20353;-71
2023/10/17 08:26:12;;;;;;;3.85;2.53;;;;;;;5.34;100.00;101970.34;6248598;28;20071;-70
2023/10/17 08:29:20;;;;;;;8.50;2.75;;;;;;;5.43;100.00;101972.84;6253122;28;20357;-71
2023/10/17 08:35:39;;;;;;;4.28;2.33;;;;;;;5.59;100.00;101968.31;6244427;28;20044;-71
2023/10/17 08:38:40;;;;;;;6.55;2.70;;;;;;;5.65;100.00;101970.81;6255393;28;20045;-71
2023/10/17 08:41:41;;;;;;;7.45;2.53;;;;;;;5.70;100.00;101968.16;6246989;28;20090;-71
2023/10/17 08:44:46;;;;;;;6.93;1.92;;;;;;;5.74;100.00;101965.47;6245369;28;20037;-71
2023/10/17 08:47:50;;;;;;;7.15;2.22;;;;;;;5.81;100.00;101967.13;6244561;28;20046;-71
2023/10/17 08:50:55;;;;;;;3.50;2.28;;;;;;;5.90;100.00;101957.44;6239829;28;20049;-71
2023/10/17 08:53:56;;;;;;;4.80;2.05;;;;;;;5.99;100.00;101966.00;6244437;28;20061;-70
2023/10/17 08:56:59;;;;;;;6.68;3.17;;;;;;;6.09;100.00;101961.53;6245984;28;20060;-71
2023/10/17 09:00:23;;;;;;;6.78;3.33;;;;;;;6.16;100.00;101949.25;6244241;28;20060;-70
2023/10/17 09:03:31;;;;;;;3.42;2.08;;;;;;;6.23;100.00;101951.75;6245908;28;20327;-71
2023/10/17 09:06:37;;;;;;;3.25;1.60;;;;;;;6.31;100.00;101947.28;6250693;28;20053;-69
2023/10/17 09:09:38;;;;;;;3.95;1.80;;;;;;;6.41;100.00;101939.28;6252202;28;20060;-69
2023/10/17 09:12:43;;;;;;;9.27;1.60;;;;;;;6.50;100.00;101936.53;6246971;28;20049;-72
2023/10/17 09:15:48;;;;;;;1.77;1.08;;;;;;;6.61;100.00;101945.00;6243712;28;20068;-70
2023/10/17 09:18:54;;;;;;;2.05;1.17;;;;;;;6.71;100.00;101936.13;6247860;28;20049;-71
2023/10/17 09:21:59;;;;;;;1.88;1.13;;;;;;;6.78;100.00;101931.66;6242694;28;20236;-70
2023/10/17 09:25:15;;;;;;;4.25;1.00;;;;;;;6.86;100.00;101940.22;6240205;28;20053;-70
2023/10/17 09:28:20;;;;;;;3.65;1.00;;;;;;;6.93;100.00;101940.94;6247805;28;20053;-70
2023/10/17 09:31:23;;;;;;;5.22;0.90;;;;;;;7.01;100.00;101945.16;6243659;28;20060;-71
2023/10/17 09:34:27;;;;;;;4.03;1.05;;;;;;;7.08;100.00;101938.03;6252074;28;20045;-70
2023/10/17 09:37:29;;;;;;;2.00;0.75;;;;;;;7.11;100.00;101940.59;6254599;28;20051;-70
2023/10/17 09:40:31;;;;;;;5.35;0.88;;;;;;;7.13;100.00;101933.59;6245010;28;20046;-70
2023/10/17 09:43:33;;;;;;;6.18;1.17;;;;;;;7.23;100.00;101926.44;6243481;28;20442;-71
2023/10/17 09:46:35;;;;;;;5.22;0.95;;;;;;;7.31;100.00;101930.59;6250010;28;20049;-70
2023/10/17 09:49:44;;;;;;;3.35;0.93;;;;;;;7.35;100.00;101934.84;6251029;28;20045;-69
2023/10/17 09:52:48;;;;;;;4.80;0.90;;;;;;;7.44;100.00;101931.19;6251290;28;20136;-72
2023/10/17 09:55:50;;;;;;;1.15;0.80;;;;;;;7.47;100.00;101933.75;6251940;28;20358;-72
2023/10/17 09:58:55;;;;;;;7.13;0.95;;;;;;;7.52;100.00;101938.88;6251166;28;20588;-71
2023/10/17 10:01:57;;;;;;;4.53;1.10;;;;;;;7.56;100.00;101936.16;6250691;28;20053;-72
2023/10/17 10:05:19;;;;;;;4.18;1.02;;;;;;;7.64;100.00;101925.53;6251171;28;20049;-72
2023/10/17 10:08:28;;;;;;;2.42;0.70;;;;;;;7.66;100.00;101922.88;6250947;28;20049;-71
2023/10/17 10:11:55;;;;;;;2.63;0.63;;;;;;;7.72;100.00;101920.13;6250750;28;20365;-71
2023/10/17 10:14:58;;;;;;;5.38;1.02;;;;;;;7.84;100.00;101925.94;6250988;28;20052;-72
2023/10/17 10:17:59;;;;;;;2.10;0.50;;;;;;;7.92;100.00;101923.16;6250762;28;20045;-72
2023/10/17 10:21:03;;;;;;;2.58;0.98;;;;;;;7.98;100.00;101923.00;6249911;28;20056;-71
2023/10/17 10:24:17;;;;;;;0.88;0.40;;;;;;;7.99;100.00;101908.16;6246597;28;20449;-72
2023/10/17 10:27:23;;;;;;;0.40;0.40;;;;;;;8.09;100.00;101902.69;6246887;28;20115;-71
2023/10/17 10:30:32;;;;;;;2.05;0.50;;;;;;;8.14;100.00;101913.03;6250614;28;20049;-71
2023/10/17 10:33:35;;;;;;;1.42;0.52;;;;;;;8.18;100.00;101909.44;6243719;28;20426;-72
2023/10/17 10:36:38;;;;;;;0.40;0.30;;;;;;;8.29;100.00;101914.41;6249332;28;20053;-71
2023/10/17 10:39:40;;;;;;;0.82;0.52;;;;;;;8.39;100.00;101900.19;6249970;28;20429;-72
2023/10/17 10:42:43;;;;;;;2.17;0.70;;;;;;;8.51;100.00;101899.03;6242124;28;20053;-70
2023/10/17 10:45:47;;;;;;;0.65;0.50;;;;;;;8.61;100.00;101909.22;6250534;28;20053;-71
2023/10/17 10:48:51;;;;;;;2.50;0.52;;;;;;;8.85;100.00;101902.44;6250539;28;20057;-72
2023/10/17 10:51:57;;;;;;;1.65;0.40;;;;;;;8.97;100.00;101896.03;6250015;28;20053;-71
2023/10/17 10:55:00;;;;;;;0.52;0.52;;;;;;;9.05;100.00;101899.28;6250493;28;20119;-71
2023/10/17 10:58:03;;;;;;;0.47;0.32;;;;;;;9.09;100.00;101906.16;6250319;28;20053;-73
2023/10/17 11:01:07;;;;;;;0.85;0.50;;;;;;;9.28;100.00;101898.63;6250145;28;20057;-71
2023/10/17 11:04:12;;;;;;;0.60;0.30;;;;;;;9.33;100.00;101899.34;6249700;28;20458;-73
2023/10/17 11:07:22;;;;;;;0.90;0.30;;;;;;;9.37;100.00;101900.13;6255487;28;20063;-72
2023/10/17 11:10:23;;;;;;;2.45;0.50;;;;;;;9.49;100.00;101898.88;6254773;28;20057;-71
2023/10/17 11:13:31;;;;;;;2.00;0.70;;;;;;;9.61;100.00;101903.75;6254911;28;20354;-72
2023/10/17 11:16:32;;;;;;;2.97;0.80;;;;;;;9.65;100.00;101901.00;6255077;28;20045;-72
2023/10/17 11:19:34;;;;;;;2.38;0.55;;;;;;;9.79;100.00;101900.56;6254896;28;20465;-72
2023/10/17 11:22:38;;;;;;;3.60;0.50;;;;;;;9.92;100.00;101903.66;6242275;28;20500;-72
2023/10/17 11:25:47;;;;;;;2.47;0.50;;;;;;;10.14;100.00;101895.94;6230092;28;20046;-71
2023/10/17 11:28:51;;;;;;;1.48;0.50;;;;;;;10.32;100.00;101895.38;6230291;28;20053;-70
2023/10/17 11:31:54;;;;;;;2.55;0.40;;;;;;;10.46;100.00;101884.38;6229390;28;20140;-73
2023/10/17 11:35:05;;;;;;;0.93;0.50;;;;;;;10.59;100.00;101885.66;6241938;28;20129;-73
2023/10/17 11:38:22;;;;;;;2.92;0.70;;;;;;;10.48;100.00;101876.44;6254223;28;20358;-73
2023/10/17 11:41:31;;;;;;;2.38;0.50;;;;;;;10.56;100.00;101874.41;6254050;28;20136;-71
2023/10/17 11:44:33;;;;;;;0.63;0.40;;;;;;;10.75;100.00;101864.94;6254512;28;20042;-73
2023/10/17 11:47:37;;;;;;;1.10;0.52;;;;;;;10.85;100.00;101855.78;6254560;28;20045;-73
2023/10/17 11:50:38;;;;;;;2.40;0.52;;;;;;;10.70;100.00;101864.25;6253968;28;20437;-73
2023/10/17 11:54:05;;;;;;;3.72;0.40;;;;;;;10.67;100.00;101861.72;6254255;28;20056;-73
2023/10/17 11:57:12;;;;;;;0.47;0.35;;;;;;;10.82;100.00;101862.97;6254093;28;20456;-73
2023/10/17 12:00:21;;;;;;;4.90;0.73;;;;;;;10.85;100.00;101861.06;6253883;28;20053;-73
2023/10/17 12:03:25;;;;;;;2.13;0.80;;;;;;;11.12;100.00;101866.22;6251490;28;20041;-72
2023/10/17 12:06:27;;;;;;;4.80;0.77;;;;;;;11.37;100.00;101859.09;6245505;28;20041;-73
2023/10/17 12:09:31;;;;;;;1.38;0.70;;;;;;;11.15;100.00;101851.19;6249079;28;20052;-72
2023/10/17 12:12:33;;;;;;;3.03;0.55;;;;;;;10.85;100.00;101847.91;6245426;28;20095;-73
2023/10/17 12:15:35;;;;;;;11.00;0.63;;;;;;;10.55;100.00;101834.13;6245239;28;20041;-72
2023/10/17 12:18:36;;;;;;;2.20;1.00;;;;;;;10.84;100.00;101826.94;6253753;28;20060;-71
2023/10/17 12:21:39;;;;;;;0.35;0.35;;;;;;;11.37;100.00;101829.31;6253154;28;20049;-72
2023/10/17 12:24:42;;;;;;;0.52;0.40;;;;;;;11.58;100.00;101817.94;6238108;28;20050;-72
2023/10/17 12:27:49;;;;;;;0.70;0.45;;;;;;;11.93;100.00;101810.38;6228927;28;20046;-72
2023/10/17 12:30:51;;;;;;;2.15;0.82;;;;;;;12.05;100.00;101803.75;6228776;28;20101;-72
2023/10/17 12:33:53;;;;;;;0.60;0.52;;;;;;;12.19;100.00;101809.28;6228627;28;20053;-69
2023/10/17 12:36:55;;;;;;;0.88;0.60;;;;;;;12.47;100.00;101798.38;6236139;28;20049;-70
2023/10/17 12:39:58;;;;;;;1.83;0.68;;;;;;;12.57;100.00;101794.38;6252920;28;20049;-70
2023/10/17 12:43:01;;;;;;;2.28;0.80;;;;;;;12.78;100.00;101783.81;6253278;28;20052;-69
2023/10/17 12:46:03;;;;;;;3.65;0.93;;;;;;;12.96;100.00;101782.97;6245111;28;20056;-69
2023/10/17 12:49:04;;;;;;;1.65;0.68;;;;;;;13.26;100.00;101785.09;6252025;28;20354;-70
2023/10/17 12:52:05;;;;;;;4.57;1.13;;;;;;;13.15;100.00;101780.31;6251715;28;20374;-70
2023/10/17 12:55:10;;;;;;;1.50;0.70;;;;;;;12.58;100.00;101779.41;6248853;28;20056;-70
2023/10/17 12:58:18;;;;;;;2.28;0.73;;;;;;;12.10;100.00;101786.81;6244384;28;20461;-70
2023/10/17 13:01:24;;;;;;;1.80;0.88;;;;;;;11.70;100.00;101774.41;6252319;28;20053;-70
2023/10/17 13:04:27;;;;;;;2.33;1.33;;;;;;;11.51;100.00;101771.69;6244191;28;20053;-70
2023/10/17 13:07:28;;;;;;;2.72;1.02;;;;;;;11.58;100.00;101761.75;6243565;28;20053;-72
2023/10/17 13:10:31;;;;;;;3.65;0.88;;;;;;;11.57;100.00;101768.81;6245578;28;20045;-71
2023/10/17 13:13:32;;;;;;;2.67;0.85;;;;;;;11.25;100.00;101770.09;6258362;28;20037;-70
2023/10/17 13:16:34;;;;;;;1.35;1.00;;;;;;;10.96;100.00;101767.78;6251524;28;20049;-72
2023/10/17 13:19:40;;;;;;;4.43;0.88;;;;;;;10.80;100.00;101765.72;6242303;28;20422;-72
2023/10/17 13:22:47;;;;;;;1.20;0.93;;;;;;;10.95;100.00;101766.06;6248875;28;20175;-72
2023/10/17 13:25:50;;;;;;;1.67;1.38;;;;;;;10.95;100.00;101764.28;6240382;28;20053;-72
2023/10/17 13:28:53;;;;;;;3.67;2.00;;;;;;;10.73;100.00;101755.50;6238984;28;20045;-72
2023/10/17 13:31:55;;;;;;;6.80;1.73;;;;;;;10.53;100.00;101764.09;6243092;28;20045;-72
2023/10/17 13:34:57;;;;;;;5.93;1.90;;;;;;;10.45;100.00;101764.41;6243784;28;20101;-72
2023/10/17 13:37:58;;;;;;;5.97;1.85;;;;;;;10.52;100.00;101760.63;6251111;28;20132;-73
2023/10/17 13:41:05;;;;;;;3.63;2.20;;;;;;;11.03;100.00;101756.94;6247151;28;20350;-72
2023/10/17 13:44:08;;;;;;;4.63;1.90;;;;;;;11.08;100.00;101756.75;6248342;28;20049;-73
2023/10/17 13:47:13;;;;;;;6.07;2.20;;;;;;;10.90;100.00;101768.84;6246244;28;20121;-72
2023/10/17 13:50:15;;;;;;;2.70;1.88;;;;;;;10.78;100.00;101759.66;6251417;28;20138;-73
2023/10/17 13:53:17;;;;;;;6.05;2.40;;;;;;;10.66;100.00;101762.75;6250237;28;20053;-73
2023/10/17 13:56:20;;;;;;;4.80;2.40;;;;;;;10.50;100.00;101754.59;6244954;28;20053;-73
2023/10/17 13:59:38;;;;;;;6.55;2.97;;;;;;;10.37;100.00;101751.53;6239774;28;20129;-72
2023/10/17 14:02:39;;;;;;;7.85;2.95;;;;;;;10.34;100.00;101751.66;6244947;28;20049;-73
2023/10/17 14:05:43;;;;;;;5.28;2.22;;;;;;;10.33;100.00;101752.56;6242843;28;20041;-73
2023/10/17 14:08:45;;;;;;;7.40;2.15;;;;;;;10.29;100.00;101750.97;6251305;28;20099;-72
2023/10/17 14:11:48;;;;;;;4.13;1.67;;;;;;;10.19;100.00;101756.56;6242458;28;20053;-73
2023/10/17 14:14:49;;;;;;;6.00;1.50;;;;;;;10.14;100.00;101746.22;6251178;28;20045;-72
2023/10/17 14:17:53;;;;;;;3.85;1.40;;;;;;;10.13;100.00;101739.28;6250849;28;20048;-71
2023/10/17 14:21:04;;;;;;;3.90;1.30;;;;;;;10.15;100.00;101738.28;6250862;28;20048;-72
2023/10/17 14:24:10;;;;;;;1.65;1.40;;;;;;;10.26;100.00;101731.81;6250918;28;20068;-72
2023/10/17 14:27:12;;;;;;;2.60;1.10;;;;;;;10.38;100.00;101734.84;6250752;28;20492;-73
2023/10/17 14:30:16;;;;;;;4.28;1.20;;;;;;;10.56;100.00;101729.84;6250764;28;20060;-72
2023/10/17 14:33:17;;;;;;;6.82;1.60;;;;;;;10.64;100.00;101735.66;6250714;28;20203;-72
2023/10/17 14:36:19;;;;;;;6.00;2.38;;;;;;;10.61;100.00;101731.38;6249561;28;20458;-72
2023/10/17 14:39:22;;;;;;;46.03;11.38;;;;;;;10.57;100.00;101727.13;6242092;28;20056;-73
2023/10/17 14:42:27;;;;;;;33.45;10.25;;;;;;;10.53;100.00;101722.06;6242001;28;20056;-73
2023/10/17 14:45:28;;;;;;;10.10;3.55;;;;;;;10.42;100.00;101722.47;6250407;28;20099;-73
2023/10/17 14:48:31;;;;;;;5.32;1.98;;;;;;;10.32;100.00;101715.84;6250385;28;20339;-73
2023/10/17 14:51:33;;;;;;;1.52;1.00;;;;;;;10.26;100.00;101708.16;6250180;28;20343;-73
2023/10/17 14:54:35;;;;;;;1.40;1.00;;;;;;;10.20;100.00;101716.25;6250406;28;20073;-72
2023/10/17 14:57:37;;;;;;;4.18;0.77;;;;;;;10.08;100.00;101710.53;6246786;28;20045;-73
2023/10/17 15:00:39;;;;;;;3.25;1.10;;;;;;;10.07;100.00;101710.56;6245287;28;20045;-72
2023/10/17 15:03:41;;;;;;;2.15;0.80;;;;;;;10.04;100.00;101700.19;6250140;28;20042;-73
2023/10/17 15:06:43;;;;;;;5.22;1.27;;;;;;;10.00;100.00;101704.69;6241429;28;20376;-72
2023/10/17 15:09:45;;;;;;;5.13;1.40;;;;;;;9.98;100.00;101693.38;6241699;28;20052;-73
2023/10/17 15:12:50;;;;;;;3.85;1.52;;;;;;;9.99;100.00;101705.63;6236096;28;20053;-72
2023/10/17 15:15:51;;;;;;;2.75;1.50;;;;;;;9.98;100.00;101700.41;6247066;28;20056;-72
2023/10/17 15:18:53;;;;;;;2.75;1.70;;;;;;;9.91;100.00;101705.88;6241276;28;20347;-72
2023/10/17 15:21:54;;;;;;;2.70;1.63;;;;;;;9.88;100.00;101694.63;6248910;28;20056;-73
2023/10/17 15:24:58;;;;;;;5.15;2.05;;;;;;;9.84;100.00;101698.25;6241032;28;20054;-71
2023/10/17 15:28:01;;;;;;;7.13;3.05;;;;;;;9.80;100.00;101696.66;6249468;28;20163;-72
2023/10/17 15:31:03;;;;;;;6.55;2.88;;;;;;;9.76;100.00;101688.00;6247428;28;20053;-73
2023/10/17 15:34:04;;;;;;;5.97;3.00;;;;;;;9.73;100.00;101690.78;6242781;28;20056;-72
2023/10/17 15:37:06;;;;;;;10.70;4.40;;;;;;;9.70;100.00;101690.88;6242388;28;20042;-73
2023/10/17 15:40:16;;;;;;;7.18;2.80;;;;;;;9.66;100.00;101692.72;6240454;28;20053;-73
2023/10/17 15:43:19;;;;;;;4.20;2.72;;;;;;;9.62;100.00;101700.75;6247357;28;20195;-73